Riceton, Canada
Current Conditions -  °F | °C
As of 12:00 PM on Wednesday 26 Nov 2014 (Local Time) from CYQR Reporting Station
Few Clouds Few Clouds  
Wind Chill: -13°   Ceiling: Unl
Heat Index:   Visibility: 15mi
Dew Point: -6°   Wind: 7mph
Humidity: 78%   Direction: 170°S
Pressure: 30.41"   Gusts: NA
Location:  50.1°N, 104.32°W
Report Text: CYQR 261800Z 17006KT 15SM FEW060 FEW230 M18/M21 A3041 RMK SC1CI1 SC TR CI TR SLP355
Loading
Personal Weather Stations






























Interactive Weather Map New forecast layout! Learn more

10-Day Weather Forecast

Advertisements
Track Severe Weather on mobile